createdAt,value
2023-09-17T00:02:38.343Z,91.74
2023-09-17T00:17:39.134Z,94.32
2023-09-17T00:32:40.037Z,96.87
2023-09-17T00:47:40.594Z,94.63
2023-09-17T01:02:43.847Z,91.62
2023-09-17T01:17:41.641Z,97.06
2023-09-17T01:32:42.435Z,95.29
2023-09-17T01:47:42.971Z,95.64
2023-09-17T02:02:43.892Z,95.23
2023-09-17T02:17:44.638Z,95.43
2023-09-17T02:32:45.201Z,93.85
2023-09-17T02:47:45.828Z,98.18
2023-09-17T03:02:46.407Z,95.73
2023-09-17T03:17:46.696Z,94.26
2023-09-17T03:33:01.972Z,96.18
2023-09-17T03:47:48.933Z,95.87
2023-09-17T04:02:48.108Z,96.08
2023-09-17T04:17:48.889Z,93.02
2023-09-17T04:32:51.694Z,96.12
2023-09-17T04:47:50.016Z,97.24
2023-09-17T05:02:51.024Z,97.04
2023-09-17T05:17:51.236Z,95.72
2023-09-17T05:32:51.947Z,95.87
2023-09-17T05:47:52.769Z,97.88
2023-09-17T06:02:53.259Z,99.47
2023-09-17T06:17:54.036Z,99.99
2023-09-17T06:32:54.932Z,98.28
2023-09-17T06:47:55.466Z,95.20
2023-09-17T07:02:55.852Z,92.94
2023-09-17T07:17:56.339Z,91.30
2023-09-17T07:32:57.176Z,87.49
2023-09-17T07:47:57.783Z,86.87
2023-09-17T08:02:58.349Z,82.66
2023-09-17T08:17:59.077Z,83.18
2023-09-17T08:32:59.617Z,78.19
2023-09-17T08:48:00.437Z,76.31
2023-09-17T09:03:01.363Z,72.53
2023-09-17T09:18:02.122Z,68.36
2023-09-17T09:33:02.522Z,65.50
2023-09-17T09:48:03.241Z,63.62
2023-09-17T10:03:03.733Z,59.93
2023-09-17T10:18:04.314Z,58.42
2023-09-17T10:33:05.058Z,57.64
2023-09-17T10:48:05.804Z,54.71
2023-09-17T11:03:06.477Z,52.51
2023-09-17T11:18:06.761Z,52.71
2023-09-17T11:33:07.475Z,53.20
2023-09-17T11:48:07.803Z,53.18
2023-09-17T12:03:08.338Z,50.95
2023-09-17T12:18:09.078Z,46.81
2023-09-17T12:33:09.851Z,51.50
2023-09-17T12:48:10.405Z,45.72
2023-09-17T13:03:10.832Z,44.75
2023-09-17T13:18:11.450Z,44.36
2023-09-17T13:33:12.236Z,47.70
2023-09-17T13:48:13.222Z,45.89
2023-09-17T14:03:13.722Z,43.38
2023-09-17T14:18:14.526Z,45.82
2023-09-17T14:33:15.374Z,46.98
2023-09-17T14:48:15.964Z,48.61
2023-09-17T15:03:17.107Z,48.31
2023-09-17T15:18:16.953Z,49.10
2023-09-17T15:33:17.339Z,47.94
2023-09-17T15:48:17.623Z,49.22
2023-09-17T16:03:20.441Z,52.86
2023-09-17T16:18:19.021Z,53.75
2023-09-17T16:33:19.958Z,55.10
2023-09-17T16:48:20.447Z,57.83
2023-09-17T17:03:21.074Z,61.60
2023-09-17T17:18:21.378Z,65.44
2023-09-17T17:33:21.935Z,66.80
2023-09-17T17:48:43.421Z,68.66
2023-09-17T18:03:24.533Z,69.82
2023-09-17T18:18:45.417Z,71.69
2023-09-17T18:33:24.824Z,74.16
2023-09-17T18:48:25.767Z,74.50
2023-09-17T19:03:26.626Z,75.87
2023-09-17T19:18:27.113Z,76.78
2023-09-17T19:33:27.889Z,79.03
2023-09-17T20:03:29.289Z,86.16
2023-09-17T20:18:29.824Z,85.31
2023-09-17T20:33:30.344Z,85.62
2023-09-17T20:48:31.074Z,85.92
2023-09-17T21:03:31.923Z,85.36
2023-09-17T21:18:37.553Z,88.10
2023-09-17T21:33:32.712Z,86.77
2023-09-17T21:48:33.497Z,92.16
2023-09-17T22:03:34.414Z,91.01
2023-09-17T22:18:35.199Z,90.91
2023-09-17T22:33:35.429Z,91.46
2023-09-17T22:48:35.954Z,91.05
2023-09-17T23:03:36.611Z,92.36
2023-09-17T23:18:37.319Z,92.06
2023-09-17T23:33:38.174Z,92.71
2023-09-17T23:48:39.116Z,93.26
